createdAt,value
2018-12-23T00:05:37.454Z,3.2
2018-12-23T00:16:22.165Z,1.8
2018-12-23T00:26:35.589Z,1.6
2018-12-23T00:36:48.656Z,2.3
2018-12-23T00:47:01.937Z,2.3
2018-12-23T00:57:15.070Z,2.7
2018-12-23T01:07:28.491Z,2.6
2018-12-23T01:17:42.634Z,3.1
2018-12-23T01:27:55.641Z,2.1
2018-12-23T01:38:09.154Z,2.0
2018-12-23T01:48:22.138Z,1.8
2018-12-23T01:58:35.439Z,1.3
2018-12-23T02:08:48.480Z,1.8
2018-12-23T02:19:01.527Z,2.2
2018-12-23T02:29:15.280Z,1.6
2018-12-23T02:40:00.723Z,2.8
2018-12-23T02:50:13.974Z,1.4
2018-12-23T03:00:27.246Z,2.1
2018-12-23T03:10:40.512Z,1.2
2018-12-23T03:21:27.357Z,1.7
2018-12-23T03:32:13.991Z,1.3
2018-12-23T03:43:00.706Z,3.1
2018-12-23T03:53:45.835Z,2.0
2018-12-23T04:04:37.355Z,3.0
2018-12-23T04:14:56.114Z,2.2
2018-12-23T04:25:52.828Z,2.0
2018-12-23T04:36:11.944Z,3.6
2018-12-23T04:47:07.869Z,6.5
2018-12-23T04:58:14.072Z,10.1
2018-12-23T05:09:16.324Z,9.5
2018-12-23T05:20:18.437Z,7.0
2018-12-23T05:30:36.333Z,5.6
2018-12-23T05:41:33.465Z,6.2
2018-12-23T05:52:23.825Z,7.4
2018-12-23T06:02:46.768Z,7.9
2018-12-23T06:13:38.329Z,8.9
2018-12-23T06:24:28.262Z,10.2
2018-12-23T06:36:02.448Z,5.1
2018-12-23T06:47:01.941Z,11.8
2018-12-23T06:58:15.083Z,12.4
2018-12-23T07:09:07.008Z,12.1
2018-12-23T07:19:26.362Z,12.1
2018-12-23T07:30:18.141Z,12.0
2018-12-23T07:41:15.526Z,15.2
2018-12-23T07:51:32.882Z,10.6
2018-12-23T08:02:32.917Z,14.1
2018-12-23T08:13:22.240Z,16.5
2018-12-23T08:24:11.124Z,12.5
2018-12-23T08:35:00.265Z,13.8
2018-12-23T08:45:49.594Z,14.1
2018-12-23T08:56:48.799Z,15.3
2018-12-23T09:07:02.582Z,9.8
2018-12-23T09:17:47.411Z,17.1
2018-12-23T09:28:01.020Z,12.9
2018-12-23T09:38:14.282Z,12.1
2018-12-23T09:48:59.464Z,11.3
2018-12-23T09:59:11.265Z,13.6
2018-12-23T10:09:24.350Z,7.5
2018-12-23T10:19:35.690Z,12.6
2018-12-23T10:29:49.414Z,12.4
2018-12-23T10:40:03.406Z,12.0
2018-12-23T10:50:17.262Z,14.0
2018-12-23T11:00:30.593Z,12.4
2018-12-23T11:10:44.097Z,9.7
2018-12-23T11:20:57.940Z,10.4
2018-12-23T11:31:11.189Z,9.5
2018-12-23T11:41:25.042Z,10.7
2018-12-23T11:52:09.881Z,12.7
2018-12-23T12:02:23.489Z,7.7
2018-12-23T12:12:37.631Z,7.7
2018-12-23T12:22:51.740Z,7.5
2018-12-23T12:33:04.929Z,9.0
2018-12-23T12:43:51.343Z,11.4
2018-12-23T12:54:04.885Z,8.7
2018-12-23T13:04:18.304Z,8.9
2018-12-23T13:14:32.435Z,11.6
2018-12-23T13:25:17.125Z,12.7
2018-12-23T13:36:04.669Z,9.0
2018-12-23T13:46:51.529Z,11.1
2018-12-23T13:57:42.173Z,9.2
2018-12-23T14:08:29.079Z,10.3
2018-12-23T14:19:19.751Z,9.8
2018-12-23T14:30:04.705Z,8.4
2018-12-23T14:40:19.023Z,4.3
2018-12-23T14:51:06.554Z,3.3
2018-12-23T15:01:57.402Z,3.3
2018-12-23T15:12:11.040Z,2.4
2018-12-23T15:22:24.913Z,3.3
2018-12-23T15:32:38.535Z,3.9
2018-12-23T15:42:49.572Z,1.9
2018-12-23T15:53:47.510Z,2.8
2018-12-23T16:04:01.541Z,2.7
2018-12-23T16:14:15.780Z,1.5
2018-12-23T16:24:29.999Z,2.9
2018-12-23T16:35:14.276Z,5.3
2018-12-23T16:45:27.931Z,3.6
2018-12-23T16:56:13.633Z,5.4
2018-12-23T17:06:58.172Z,4.3
2018-12-23T17:17:11.813Z,4.0
2018-12-23T17:27:25.044Z,4.9
2018-12-23T17:37:39.015Z,5.0
2018-12-23T17:47:52.677Z,6.5
2018-12-23T17:58:06.625Z,5.7
2018-12-23T18:08:19.830Z,5.6
2018-12-23T18:19:04.355Z,6.2
2018-12-23T18:29:17.613Z,4.1
2018-12-23T18:39:32.983Z,5.7
2018-12-23T18:49:46.316Z,6.3
2018-12-23T19:00:32.295Z,7.9
2018-12-23T19:11:17.305Z,7.8
2018-12-23T19:21:31.320Z,4.1
2018-12-23T19:32:18.665Z,8.3
2018-12-23T19:42:32.528Z,6.2
2018-12-23T19:54:42.386Z,7.9
2018-12-23T20:08:36.247Z,6.7
2018-12-23T20:22:21.838Z,5.2
2018-12-23T20:36:56.125Z,3.8
2018-12-23T20:51:07.754Z,2.8
2018-12-23T21:05:27.535Z,3.2
2018-12-23T21:32:47.719Z,2.0
2018-12-23T21:46:06.783Z,2.3
2018-12-23T22:11:32.910Z,2.0
2018-12-23T22:21:38.206Z,1.9
2018-12-23T22:31:51.376Z,1.5
2018-12-23T22:43:01.276Z,1.6
2018-12-23T22:53:14.493Z,1.8
2018-12-23T23:03:27.696Z,1.2
2018-12-23T23:13:41.343Z,0.9
2018-12-23T23:23:56.112Z,2.0
2018-12-23T23:35:12.426Z,2.1
2018-12-23T23:46:00.002Z,2.3
2018-12-23T23:56:52.935Z,2.3
